sensor_id;sensor_type;location;lat;lon;timestamp;pressure;altitude;pressure_sealevel;temperature;humidity
31092;BME280;67728;53.122;12.776;2024-03-02T00:01:18;99959.41;;;2.80;89.32
31092;BME280;67728;53.122;12.776;2024-03-02T00:02:50;99963.66;;;2.82;89.28
31092;BME280;67728;53.122;12.776;2024-03-02T00:04:20;99959.13;;;2.84;89.31
31092;BME280;67728;53.122;12.776;2024-03-02T00:05:53;99950.88;;;2.89;89.57
31092;BME280;67728;53.122;12.776;2024-03-02T00:07:24;99957.75;;;2.91;89.22
31092;BME280;67728;53.122;12.776;2024-03-02T00:08:58;99947.94;;;2.94;89.46
31092;BME280;67728;53.122;12.776;2024-03-02T00:10:35;99946.06;;;2.96;89.52
31092;BME280;67728;53.122;12.776;2024-03-02T00:12:11;99945.94;;;2.97;89.01
31092;BME280;67728;53.122;12.776;2024-03-02T00:13:47;99944.81;;;3.01;89.42
31092;BME280;67728;53.122;12.776;2024-03-02T00:15:33;99938.44;;;3.04;89.26
31092;BME280;67728;53.122;12.776;2024-03-02T00:17:17;99943.66;;;3.05;89.43
31092;BME280;67728;53.122;12.776;2024-03-02T00:18:52;99940.78;;;3.08;89.83
31092;BME280;67728;53.122;12.776;2024-03-02T00:20:24;99938.81;;;3.12;89.46
31092;BME280;67728;53.122;12.776;2024-03-02T00:22:00;99939.53;;;3.14;89.67
31092;BME280;67728;53.122;12.776;2024-03-02T00:23:33;99931.50;;;3.15;89.58
31092;BME280;67728;53.122;12.776;2024-03-02T00:25:05;99933.09;;;3.18;89.48
31092;BME280;67728;53.122;12.776;2024-03-02T00:26:39;99938.19;;;3.21;89.62
31092;BME280;67728;53.122;12.776;2024-03-02T00:28:17;99945.19;;;3.22;89.51
31092;BME280;67728;53.122;12.776;2024-03-02T00:29:50;99940.66;;;3.24;89.68
31092;BME280;67728;53.122;12.776;2024-03-02T00:31:21;99936.06;;;3.26;89.82
31092;BME280;67728;53.122;12.776;2024-03-02T00:32:52;99936.84;;;3.28;89.96
31092;BME280;67728;53.122;12.776;2024-03-02T00:34:23;99934.94;;;3.30;89.83
31092;BME280;67728;53.122;12.776;2024-03-02T00:35:55;99933.03;;;3.32;89.87
31092;BME280;67728;53.122;12.776;2024-03-02T00:37:28;99924.97;;;3.33;89.72
31092;BME280;67728;53.122;12.776;2024-03-02T00:39:00;99924.88;;;3.35;89.67
31092;BME280;67728;53.122;12.776;2024-03-02T00:40:31;99923.91;;;3.36;89.65
31092;BME280;67728;53.122;12.776;2024-03-02T00:42:03;99917.78;;;3.36;89.52
31092;BME280;67728;53.122;12.776;2024-03-02T00:43:47;99920.31;;;3.37;89.19
31092;BME280;67728;53.122;12.776;2024-03-02T00:45:20;99919.38;;;3.38;89.76
31092;BME280;67728;53.122;12.776;2024-03-02T00:46:53;99920.13;;;3.40;89.85
31092;BME280;67728;53.122;12.776;2024-03-02T00:48:23;99913.03;;;3.41;89.60
31092;BME280;67728;53.122;12.776;2024-03-02T00:49:55;99920.84;;;3.42;89.60
31092;BME280;67728;53.122;12.776;2024-03-02T00:51:26;99917.16;;;3.45;90.16
31092;BME280;67728;53.122;12.776;2024-03-02T00:53:01;99915.38;;;3.45;89.79
31092;BME280;67728;53.122;12.776;2024-03-02T00:54:32;99918.78;;;3.47;89.57
31092;BME280;67728;53.122;12.776;2024-03-02T00:56:09;99914.19;;;3.49;89.35
31092;BME280;67728;53.122;12.776;2024-03-02T00:57:39;99907.84;;;3.52;89.22
31092;BME280;67728;53.122;12.776;2024-03-02T00:59:11;99913.88;;;3.54;89.84
31092;BME280;67728;53.122;12.776;2024-03-02T01:00:42;99914.63;;;3.56;89.32
31092;BME280;67728;53.122;12.776;2024-03-02T01:02:13;99916.34;;;3.57;89.61
31092;BME280;67728;53.122;12.776;2024-03-02T01:03:46;99912.59;;;3.59;90.11
31092;BME280;67728;53.122;12.776;2024-03-02T01:05:16;99912.50;;;3.61;89.64
31092;BME280;67728;53.122;12.776;2024-03-02T01:06:48;99909.78;;;3.62;89.82
31092;BME280;67728;53.122;12.776;2024-03-02T01:08:21;99910.53;;;3.64;90.01
31092;BME280;67728;53.122;12.776;2024-03-02T01:09:51;99906.91;;;3.65;89.67
31092;BME280;67728;53.122;12.776;2024-03-02T01:11:23;99912.94;;;3.67;89.95
31092;BME280;67728;53.122;12.776;2024-03-02T01:12:54;99911.91;;;3.70;89.51
31092;BME280;67728;53.122;12.776;2024-03-02T01:14:25;99901.19;;;3.71;90.07
31092;BME280;67728;53.122;12.776;2024-03-02T01:15:57;99909.88;;;3.73;90.00
31092;BME280;67728;53.122;12.776;2024-03-02T01:17:28;99905.34;;;3.76;90.08
31092;BME280;67728;53.122;12.776;2024-03-02T01:19:00;99901.69;;;3.77;89.61
31092;BME280;67728;53.122;12.776;2024-03-02T01:20:31;99900.75;;;3.78;90.29
31092;BME280;67728;53.122;12.776;2024-03-02T01:22:03;99892.81;;;3.78;89.67
31092;BME280;67728;53.122;12.776;2024-03-02T01:23:35;99900.66;;;3.79;89.95
31092;BME280;67728;53.122;12.776;2024-03-02T01:25:08;99896.22;;;3.80;90.39
31092;BME280;67728;53.122;12.776;2024-03-02T01:26:39;99890.91;;;3.80;90.22
31092;BME280;67728;53.122;12.776;2024-03-02T01:28:10;99896.94;;;3.82;90.57
31092;BME280;67728;53.122;12.776;2024-03-02T01:29:41;99903.06;;;3.82;89.96
31092;BME280;67728;53.122;12.776;2024-03-02T01:31:12;99897.78;;;3.82;90.10
31092;BME280;67728;53.122;12.776;2024-03-02T01:32:43;99893.31;;;3.83;90.62
31092;BME280;67728;53.122;12.776;2024-03-02T01:34:15;99897.69;;;3.84;90.07
31092;BME280;67728;53.122;12.776;2024-03-02T01:35:45;99889.72;;;3.84;90.21
31092;BME280;67728;53.122;12.776;2024-03-02T01:37:17;99897.59;;;3.85;90.16
31092;BME280;67728;53.122;12.776;2024-03-02T01:38:49;99890.47;;;3.86;90.06
31092;BME280;67728;53.122;12.776;2024-03-02T01:40:21;99892.19;;;3.87;90.56
31092;BME280;67728;53.122;12.776;2024-03-02T01:41:53;99893.84;;;3.88;90.16
31092;BME280;67728;53.122;12.776;2024-03-02T01:43:25;99884.94;;;3.89;90.00
31092;BME280;67728;53.122;12.776;2024-03-02T01:44:56;99889.53;;;3.87;90.34
31092;BME280;67728;53.122;12.776;2024-03-02T01:46:28;99885.09;;;3.87;90.45
31092;BME280;67728;53.122;12.776;2024-03-02T01:47:59;99892.06;;;3.88;90.71
31092;BME280;67728;53.122;12.776;2024-03-02T01:49:30;99891.09;;;3.89;90.12
31092;BME280;67728;53.122;12.776;2024-03-02T01:51:03;99881.34;;;3.90;90.47
31092;BME280;67728;53.122;12.776;2024-03-02T01:52:36;99883.16;;;3.89;90.46
31092;BME280;67728;53.122;12.776;2024-03-02T01:54:08;99882.22;;;3.90;90.89
31092;BME280;67728;53.122;12.776;2024-03-02T01:55:40;99883.91;;;3.91;90.04
31092;BME280;67728;53.122;12.776;2024-03-02T01:57:10;99890.06;;;3.92;90.78
31092;BME280;67728;53.122;12.776;2024-03-02T01:58:42;99876.81;;;3.92;90.33
31092;BME280;67728;53.122;12.776;2024-03-02T02:00:15;99883.69;;;3.94;90.57
31092;BME280;67728;53.122;12.776;2024-03-02T02:01:47;99883.69;;;3.94;90.09
31092;BME280;67728;53.122;12.776;2024-03-02T02:03:18;99881.88;;;3.95;90.30
31092;BME280;67728;53.122;12.776;2024-03-02T02:04:50;99880.94;;;3.96;90.73
31092;BME280;67728;53.122;12.776;2024-03-02T02:06:21;99875.63;;;3.96;90.45
31092;BME280;67728;53.122;12.776;2024-03-02T02:07:52;99875.63;;;3.96;90.82
31092;BME280;67728;53.122;12.776;2024-03-02T02:09:26;99876.47;;;3.96;90.85
31092;BME280;67728;53.122;12.776;2024-03-02T02:10:56;99868.44;;;3.98;90.97
31092;BME280;67728;53.122;12.776;2024-03-02T02:12:28;99866.72;;;3.97;91.15
31092;BME280;67728;53.122;12.776;2024-03-02T02:13:59;99863.22;;;3.96;90.63
31092;BME280;67728;53.122;12.776;2024-03-02T02:15:30;99861.44;;;3.97;91.11
31092;BME280;67728;53.122;12.776;2024-03-02T02:17:01;99863.13;;;3.98;90.79
31092;BME280;67728;53.122;12.776;2024-03-02T02:18:33;99863.97;;;3.98;91.25
31092;BME280;67728;53.122;12.776;2024-03-02T02:20:05;99861.19;;;4.00;91.24
31092;BME280;67728;53.122;12.776;2024-03-02T02:21:42;99857.59;;;4.01;91.16
31092;BME280;67728;53.122;12.776;2024-03-02T02:23:12;99858.44;;;4.01;90.91
31092;BME280;67728;53.122;12.776;2024-03-02T02:24:44;99856.53;;;4.03;91.25
31092;BME280;67728;53.122;12.776;2024-03-02T02:26:14;99862.69;;;4.04;90.82
31092;BME280;67728;53.122;12.776;2024-03-02T02:27:46;99853.75;;;4.05;91.08
31092;BME280;67728;53.122;12.776;2024-03-02T02:29:17;99849.22;;;4.07;90.93
31092;BME280;67728;53.122;12.776;2024-03-02T02:30:49;99850.16;;;4.06;91.42
31092;BME280;67728;53.122;12.776;2024-03-02T02:32:19;99850.91;;;4.08;90.71
31092;BME280;67728;53.122;12.776;2024-03-02T02:33:51;99849.97;;;4.09;91.03
31092;BME280;67728;53.122;12.776;2024-03-02T02:35:21;99853.47;;;4.09;91.29
31092;BME280;67728;53.122;12.776;2024-03-02T02:36:55;99850.66;;;4.11;91.39
31092;BME280;67728;53.122;12.776;2024-03-02T02:38:26;99848.88;;;4.11;91.50
31092;BME280;67728;53.122;12.776;2024-03-02T02:39:57;99856.72;;;4.13;91.29
31092;BME280;67728;53.122;12.776;2024-03-02T02:41:29;99846.97;;;4.13;91.56
31092;BME280;67728;53.122;12.776;2024-03-02T02:43:00;99845.16;;;4.14;90.96
31092;BME280;67728;53.122;12.776;2024-03-02T02:44:31;99846.97;;;4.13;91.68
31092;BME280;67728;53.122;12.776;2024-03-02T02:46:02;99849.53;;;4.15;91.07
31092;BME280;67728;53.122;12.776;2024-03-02T02:47:34;99850.38;;;4.15;91.75
31092;BME280;67728;53.122;12.776;2024-03-02T02:49:05;99847.72;;;4.15;91.45
31092;BME280;67728;53.122;12.776;2024-03-02T02:50:37;99847.59;;;4.17;91.98
31092;BME280;67728;53.122;12.776;2024-03-02T02:52:10;99850.38;;;4.15;91.36
31092;BME280;67728;53.122;12.776;2024-03-02T02:53:40;99839.63;;;4.17;91.84
31092;BME280;67728;53.122;12.776;2024-03-02T02:55:13;99837.84;;;4.18;91.40
31092;BME280;67728;53.122;12.776;2024-03-02T02:56:45;99838.56;;;4.20;91.38
31092;BME280;67728;53.122;12.776;2024-03-02T02:58:16;99841.22;;;4.20;91.32
31092;BME280;67728;53.122;12.776;2024-03-02T02:59:48;99841.22;;;4.20;91.57
31092;BME280;67728;53.122;12.776;2024-03-02T03:01:18;99840.28;;;4.21;91.65
31092;BME280;67728;53.122;12.776;2024-03-02T03:02:50;99841.94;;;4.22;91.41
31092;BME280;67728;53.122;12.776;2024-03-02T03:04:21;99834.00;;;4.22;92.04
31092;BME280;67728;53.122;12.776;2024-03-02T03:05:52;99835.59;;;4.24;92.05
31092;BME280;67728;53.122;12.776;2024-03-02T03:07:24;99834.75;;;4.24;91.61
31092;BME280;67728;53.122;12.776;2024-03-02T03:08:56;99837.28;;;4.25;92.02
31092;BME280;67728;53.122;12.776;2024-03-02T03:10:27;99833.69;;;4.26;91.48
31092;BME280;67728;53.122;12.776;2024-03-02T03:11:59;99830.06;;;4.27;91.82
31092;BME280;67728;53.122;12.776;2024-03-02T03:13:30;99822.00;;;4.29;92.09
31092;BME280;67728;53.122;12.776;2024-03-02T03:15:02;99828.16;;;4.29;92.00
31092;BME280;67728;53.122;12.776;2024-03-02T03:16:34;99820.19;;;4.29;92.05
31092;BME280;67728;53.122;12.776;2024-03-02T03:18:06;99828.03;;;4.31;91.58
31092;BME280;67728;53.122;12.776;2024-03-02T03:19:38;99822.75;;;4.31;91.47
31092;BME280;67728;53.122;12.776;2024-03-02T03:21:10;99824.44;;;4.32;91.35
31092;BME280;67728;53.122;12.776;2024-03-02T03:22:42;99821.78;;;4.32;91.59
31092;BME280;67728;53.122;12.776;2024-03-02T03:24:13;99825.28;;;4.32;91.78
31092;BME280;67728;53.122;12.776;2024-03-02T03:25:44;99826.94;;;4.33;91.95
31092;BME280;67728;53.122;12.776;2024-03-02T03:27:15;99819.97;;;4.32;91.98
31092;BME280;67728;53.122;12.776;2024-03-02T03:28:46;99826.94;;;4.33;91.48
31092;BME280;67728;53.122;12.776;2024-03-02T03:30:17;99819.84;;;4.34;91.97
31092;BME280;67728;53.122;12.776;2024-03-02T03:31:48;99823.34;;;4.34;91.32
31092;BME280;67728;53.122;12.776;2024-03-02T03:33:20;99827.69;;;4.35;91.41
31092;BME280;67728;53.122;12.776;2024-03-02T03:34:50;99822.41;;;4.35;91.37
31092;BME280;67728;53.122;12.776;2024-03-02T03:36:22;99833.84;;;4.36;91.58
31092;BME280;67728;53.122;12.776;2024-03-02T03:37:54;99821.44;;;4.36;91.39
31092;BME280;67728;53.122;12.776;2024-03-02T03:39:25;99824.09;;;4.36;91.62
31092;BME280;67728;53.122;12.776;2024-03-02T03:40:56;99824.94;;;4.37;91.71
31092;BME280;67728;53.122;12.776;2024-03-02T03:42:28;99826.75;;;4.36;91.89
31092;BME280;67728;53.122;12.776;2024-03-02T03:43:58;99828.44;;;4.37;91.53
31092;BME280;67728;53.122;12.776;2024-03-02T03:45:30;99828.44;;;4.37;92.23
31092;BME280;67728;53.122;12.776;2024-03-02T03:47:01;99827.50;;;4.38;91.71
31092;BME280;67728;53.122;12.776;2024-03-02T03:48:33;99824.84;;;4.38;91.93
31092;BME280;67728;53.122;12.776;2024-03-02T03:50:04;99826.50;;;4.39;92.27
31092;BME280;67728;53.122;12.776;2024-03-02T03:51:37;99830.97;;;4.39;91.76
31092;BME280;67728;53.122;12.776;2024-03-02T03:53:09;99832.66;;;4.40;91.54
31092;BME280;67728;53.122;12.776;2024-03-02T03:54:40;99834.38;;;4.41;91.50
31092;BME280;67728;53.122;12.776;2024-03-02T03:56:13;99831.72;;;4.41;91.55
31092;BME280;67728;53.122;12.776;2024-03-02T03:57:44;99829.91;;;4.41;91.82
31092;BME280;67728;53.122;12.776;2024-03-02T03:59:15;99832.56;;;4.41;91.87
31092;BME280;67728;53.122;12.776;2024-03-02T04:00:47;99836.91;;;4.42;91.65
31092;BME280;67728;53.122;12.776;2024-03-02T04:02:17;99830.66;;;4.43;91.81
31092;BME280;67728;53.122;12.776;2024-03-02T04:03:49;99834.16;;;4.44;91.57
31092;BME280;67728;53.122;12.776;2024-03-02T04:05:19;99841.97;;;4.45;91.79
31092;BME280;67728;53.122;12.776;2024-03-02T04:06:51;99840.06;;;4.47;91.60
31092;BME280;67728;53.122;12.776;2024-03-02T04:08:23;99838.38;;;4.46;91.38
31092;BME280;67728;53.122;12.776;2024-03-02T04:09:55;99840.91;;;4.48;91.56
31092;BME280;67728;53.122;12.776;2024-03-02T04:11:25;99838.16;;;4.49;91.92
31092;BME280;67728;53.122;12.776;2024-03-02T04:12:57;99837.19;;;4.50;91.76
31092;BME280;67728;53.122;12.776;2024-03-02T04:14:28;99836.34;;;4.50;91.94
31092;BME280;67728;53.122;12.776;2024-03-02T04:15:59;99842.50;;;4.50;91.73
31092;BME280;67728;53.122;12.776;2024-03-02T04:17:32;99836.22;;;4.51;91.93
31092;BME280;67728;53.122;12.776;2024-03-02T04:19:02;99838.78;;;4.53;91.61
31092;BME280;67728;53.122;12.776;2024-03-02T04:20:34;99837.94;;;4.52;91.78
31092;BME280;67728;53.122;12.776;2024-03-02T04:22:05;99845.78;;;4.54;92.10
31092;BME280;67728;53.122;12.776;2024-03-02T04:23:38;99842.19;;;4.55;92.29
31092;BME280;67728;53.122;12.776;2024-03-02T04:25:09;99841.31;;;4.54;91.93
31092;BME280;67728;53.122;12.776;2024-03-02T04:26:40;99839.53;;;4.55;92.26
31092;BME280;67728;53.122;12.776;2024-03-02T04:28:11;99844.81;;;4.55;91.74
31092;BME280;67728;53.122;12.776;2024-03-02T04:29:43;99851.69;;;4.57;92.45
31092;BME280;67728;53.122;12.776;2024-03-02T04:31:14;99847.13;;;4.60;91.86
31092;BME280;67728;53.122;12.776;2024-03-02T04:32:46;99852.44;;;4.60;92.28
31092;BME280;67728;53.122;12.776;2024-03-02T04:34:17;99851.50;;;4.61;92.38
31092;BME280;67728;53.122;12.776;2024-03-02T04:35:48;99857.66;;;4.61;92.28
31092;BME280;67728;53.122;12.776;2024-03-02T04:37:19;99853.16;;;4.62;92.27
31092;BME280;67728;53.122;12.776;2024-03-02T04:38:52;99857.50;;;4.63;92.08
31092;BME280;67728;53.122;12.776;2024-03-02T04:40:22;99849.56;;;4.63;92.48
31092;BME280;67728;53.122;12.776;2024-03-02T04:41:54;99851.25;;;4.64;92.59
31092;BME280;67728;53.122;12.776;2024-03-02T04:43:25;99852.94;;;4.65;92.12
31092;BME280;67728;53.122;12.776;2024-03-02T04:44:56;99860.06;;;4.64;92.65
31092;BME280;67728;53.122;12.776;2024-03-02T04:46:27;99868.78;;;4.66;92.20
31092;BME280;67728;53.122;12.776;2024-03-02T04:47:59;99862.47;;;4.67;92.77
31092;BME280;67728;53.122;12.776;2024-03-02T04:49:30;99865.03;;;4.69;92.17
31092;BME280;67728;53.122;12.776;2024-03-02T04:51:01;99867.69;;;4.69;92.71
31092;BME280;67728;53.122;12.776;2024-03-02T04:52:33;99865.88;;;4.69;92.13
31092;BME280;67728;53.122;12.776;2024-03-02T04:54:06;99857.91;;;4.69;92.38
31092;BME280;67728;53.122;12.776;2024-03-02T04:55:36;99868.41;;;4.71;92.44
31092;BME280;67728;53.122;12.776;2024-03-02T04:57:22;99864.81;;;4.72;92.53
31092;BME280;67728;53.122;12.776;2024-03-02T04:58:53;99865.66;;;4.72;92.13
31092;BME280;67728;53.122;12.776;2024-03-02T05:00:24;99868.19;;;4.74;92.47
31092;BME280;67728;53.122;12.776;2024-03-02T05:01:56;99862.03;;;4.73;92.79
31092;BME280;67728;53.122;12.776;2024-03-02T05:03:26;99869.03;;;4.74;92.44
31092;BME280;67728;53.122;12.776;2024-03-02T05:04:58;99866.38;;;4.74;92.72
31092;BME280;67728;53.122;12.776;2024-03-02T05:06:29;99868.94;;;4.76;92.83
31092;BME280;67728;53.122;12.776;2024-03-02T05:08:00;99864.56;;;4.75;92.82
31092;BME280;67728;53.122;12.776;2024-03-02T05:09:33;99867.97;;;4.77;92.30
31092;BME280;67728;53.122;12.776;2024-03-02T05:11:04;99867.03;;;4.78;92.81
31092;BME280;67728;53.122;12.776;2024-03-02T05:12:49;99869.66;;;4.78;92.04
31092;BME280;67728;53.122;12.776;2024-03-02T05:14:29;99868.69;;;4.79;92.14
31092;BME280;67728;53.122;12.776;2024-03-02T05:16:00;99867.72;;;4.80;92.49
31092;BME280;67728;53.122;12.776;2024-03-02T05:17:31;99858.81;;;4.81;92.84
31092;BME280;67728;53.122;12.776;2024-03-02T05:19:02;99869.31;;;4.82;92.36
31092;BME280;67728;53.122;12.776;2024-03-02T05:20:33;99869.31;;;4.82;92.85
31092;BME280;67728;53.122;12.776;2024-03-02T05:22:04;99869.22;;;4.84;92.36
31092;BME280;67728;53.122;12.776;2024-03-02T05:23:36;99876.19;;;4.85;92.50
31092;BME280;67728;53.122;12.776;2024-03-02T05:25:08;99873.44;;;4.86;92.90
31092;BME280;67728;53.122;12.776;2024-03-02T05:26:41;99870.78;;;4.86;92.28
31092;BME280;67728;53.122;12.776;2024-03-02T05:28:11;99869.94;;;4.86;92.87
31092;BME280;67728;53.122;12.776;2024-03-02T05:29:43;99872.47;;;4.87;92.89
31092;BME280;67728;53.122;12.776;2024-03-02T05:31:15;99875.13;;;4.87;92.37
31092;BME280;67728;53.122;12.776;2024-03-02T05:32:47;99878.53;;;4.89;92.68
31092;BME280;67728;53.122;12.776;2024-03-02T05:34:17;99871.38;;;4.90;93.11
31092;BME280;67728;53.122;12.776;2024-03-02T05:35:49;99873.94;;;4.91;92.71
31092;BME280;67728;53.122;12.776;2024-03-02T05:37:20;99871.28;;;4.91;92.44
31092;BME280;67728;53.122;12.776;2024-03-02T05:38:51;99877.44;;;4.92;92.50
31092;BME280;67728;53.122;12.776;2024-03-02T05:40:23;99878.19;;;4.94;92.50
31092;BME280;67728;53.122;12.776;2024-03-02T05:41:55;99871.94;;;4.95;92.53
31092;BME280;67728;53.122;12.776;2024-03-02T05:43:26;99875.28;;;4.97;92.78
31092;BME280;67728;53.122;12.776;2024-03-02T05:44:57;99877.84;;;4.98;92.66
31092;BME280;67728;53.122;12.776;2024-03-02T05:46:29;99875.09;;;5.00;93.20
31092;BME280;67728;53.122;12.776;2024-03-02T05:48:00;99877.59;;;5.02;93.45
31092;BME280;67728;53.122;12.776;2024-03-02T05:49:31;99879.28;;;5.03;93.59
31092;BME280;67728;53.122;12.776;2024-03-02T05:51:03;99873.13;;;5.02;92.93
31092;BME280;67728;53.122;12.776;2024-03-02T05:52:34;99881.84;;;5.04;93.32
31092;BME280;67728;53.122;12.776;2024-03-02T05:54:05;99892.47;;;5.04;93.53
31092;BME280;67728;53.122;12.776;2024-03-02T05:55:37;99878.22;;;5.05;93.23
31092;BME280;67728;53.122;12.776;2024-03-02T05:57:09;99888.84;;;5.05;93.49
31092;BME280;67728;53.122;12.776;2024-03-02T05:59:02;99883.44;;;5.07;93.30
31092;BME280;67728;53.122;12.776;2024-03-02T06:00:43;99885.25;;;5.06;93.32
31092;BME280;67728;53.122;12.776;2024-03-02T06:02:13;99879.78;;;5.08;93.43
31092;BME280;67728;53.122;12.776;2024-03-02T06:03:45;99880.66;;;5.08;93.29
31092;BME280;67728;53.122;12.776;2024-03-02T06:05:15;99884.16;;;5.09;93.44
31092;BME280;67728;53.122;12.776;2024-03-02T06:06:49;99885.84;;;5.10;93.11
31092;BME280;67728;53.122;12.776;2024-03-02T06:08:19;99884.91;;;5.11;93.08
31092;BME280;67728;53.122;12.776;2024-03-02T06:09:51;99886.59;;;5.12;93.48
31092;BME280;67728;53.122;12.776;2024-03-02T06:11:24;99890.09;;;5.12;93.30
31092;BME280;67728;53.122;12.776;2024-03-02T06:12:55;99889.09;;;5.13;93.86
31092;BME280;67728;53.122;12.776;2024-03-02T06:14:26;99890.91;;;5.13;93.23
31092;BME280;67728;53.122;12.776;2024-03-02T06:15:57;99890.81;;;5.14;93.47
31092;BME280;67728;53.122;12.776;2024-03-02T06:17:28;99883.78;;;5.13;93.80
31092;BME280;67728;53.122;12.776;2024-03-02T06:18:59;99890.81;;;5.14;93.50
31092;BME280;67728;53.122;12.776;2024-03-02T06:20:31;99894.31;;;5.15;93.42
31092;BME280;67728;53.122;12.776;2024-03-02T06:22:01;99887.19;;;5.15;93.66
31092;BME280;67728;53.122;12.776;2024-03-02T06:23:34;99888.03;;;5.16;93.82
31092;BME280;67728;53.122;12.776;2024-03-02T06:25:06;99883.47;;;5.18;93.60
31092;BME280;67728;53.122;12.776;2024-03-02T06:26:38;99896.88;;;5.16;93.28
31092;BME280;67728;53.122;12.776;2024-03-02T06:28:10;99893.25;;;5.17;93.89
31092;BME280;67728;53.122;12.776;2024-03-02T06:29:41;99899.41;;;5.18;93.71
31092;BME280;67728;53.122;12.776;2024-03-02T06:31:12;99897.47;;;5.20;93.31
31092;BME280;67728;53.122;12.776;2024-03-02T06:32:43;99893.00;;;5.20;93.26
31092;BME280;67728;53.122;12.776;2024-03-02T06:34:14;99899.91;;;5.23;93.74
31092;BME280;67728;53.122;12.776;2024-03-02T06:35:45;99893.66;;;5.24;93.68
31092;BME280;67728;53.122;12.776;2024-03-02T06:37:17;99890.00;;;5.25;94.11
31092;BME280;67728;53.122;12.776;2024-03-02T06:38:47;99897.00;;;5.26;94.08
31092;BME280;67728;53.122;12.776;2024-03-02T06:40:19;99894.25;;;5.27;93.90
31092;BME280;67728;53.122;12.776;2024-03-02T06:41:51;99896.78;;;5.29;94.18
31092;BME280;67728;53.122;12.776;2024-03-02T06:43:23;99897.66;;;5.29;93.58
31092;BME280;67728;53.122;12.776;2024-03-02T06:44:54;99902.97;;;5.29;93.71
31092;BME280;67728;53.122;12.776;2024-03-02T06:46:28;99903.56;;;5.33;94.31
31092;BME280;67728;53.122;12.776;2024-03-02T06:48:00;99908.75;;;5.34;94.05
31092;BME280;67728;53.122;12.776;2024-03-02T06:49:32;99912.28;;;5.35;93.83
31092;BME280;67728;53.122;12.776;2024-03-02T06:51:03;99909.47;;;5.36;94.26
31092;BME280;67728;53.122;12.776;2024-03-02T06:52:35;99909.38;;;5.38;94.09
31092;BME280;67728;53.122;12.776;2024-03-02T06:54:06;99910.72;;;5.44;94.00
31092;BME280;67728;53.122;12.776;2024-03-02T06:55:38;99914.59;;;5.51;94.07
31092;BME280;67728;53.122;12.776;2024-03-02T06:57:10;99911.34;;;5.58;94.83
31092;BME280;67728;53.122;12.776;2024-03-02T06:58:41;99917.19;;;5.63;94.69
31092;BME280;67728;53.122;12.776;2024-03-02T07:00:14;99914.16;;;5.68;94.08
31092;BME280;67728;53.122;12.776;2024-03-02T07:01:45;99924.44;;;5.72;94.22
31092;BME280;67728;53.122;12.776;2024-03-02T07:03:16;99916.22;;;5.75;94.54
31092;BME280;67728;53.122;12.776;2024-03-02T07:04:47;99915.16;;;5.78;94.64
31092;BME280;67728;53.122;12.776;2024-03-02T07:06:21;99921.31;;;5.78;94.15
31092;BME280;67728;53.122;12.776;2024-03-02T07:07:52;99919.13;;;5.83;94.87
31092;BME280;67728;53.122;12.776;2024-03-02T07:09:23;99917.97;;;5.88;94.92
31092;BME280;67728;53.122;12.776;2024-03-02T07:10:54;99924.88;;;5.90;94.71
31092;BME280;67728;53.122;12.776;2024-03-02T07:12:27;99927.28;;;5.93;95.09
31092;BME280;67728;53.122;12.776;2024-03-02T07:13:59;99931.41;;;5.97;94.66
31092;BME280;67728;53.122;12.776;2024-03-02T07:15:30;99928.50;;;6.00;94.73
31092;BME280;67728;53.122;12.776;2024-03-02T07:17:17;99925.63;;;6.03;94.91
31092;BME280;67728;53.122;12.776;2024-03-02T07:18:48;99928.97;;;6.05;95.00
31092;BME280;67728;53.122;12.776;2024-03-02T07:20:22;99929.59;;;6.09;95.14
31092;BME280;67728;53.122;12.776;2024-03-02T07:21:52;99936.25;;;6.14;94.72
31092;BME280;67728;53.122;12.776;2024-03-02T07:23:24;99940.47;;;6.17;94.77
31092;BME280;67728;53.122;12.776;2024-03-02T07:24:57;99936.25;;;6.26;94.67
31092;BME280;67728;53.122;12.776;2024-03-02T07:26:29;99935.03;;;6.41;94.93
31092;BME280;67728;53.122;12.776;2024-03-02T07:28:03;99930.81;;;6.60;94.97
31092;BME280;67728;53.122;12.776;2024-03-02T07:29:35;99935.28;;;6.60;94.62
31092;BME280;67728;53.122;12.776;2024-03-02T07:31:06;99933.69;;;6.57;94.41
31092;BME280;67728;53.122;12.776;2024-03-02T07:32:38;99932.94;;;6.55;94.46
31092;BME280;67728;53.122;12.776;2024-03-02T07:34:09;99934.19;;;6.51;94.33
31092;BME280;67728;53.122;12.776;2024-03-02T07:35:40;99938.75;;;6.49;94.42
31092;BME280;67728;53.122;12.776;2024-03-02T07:37:11;99939.03;;;6.46;94.51
31092;BME280;67728;53.122;12.776;2024-03-02T07:38:43;99939.03;;;6.46;94.29
31092;BME280;67728;53.122;12.776;2024-03-02T07:40:15;99940.84;;;6.46;94.79
31092;BME280;67728;53.122;12.776;2024-03-02T07:41:46;99944.47;;;6.45;94.62
31092;BME280;67728;53.122;12.776;2024-03-02T07:43:19;99942.75;;;6.44;94.76
31092;BME280;67728;53.122;12.776;2024-03-02T07:44:50;99947.13;;;6.45;94.52
31092;BME280;67728;53.122;12.776;2024-03-02T07:46:22;99946.28;;;6.44;94.59
31092;BME280;67728;53.122;12.776;2024-03-02T07:47:52;99950.63;;;6.45;94.80
31092;BME280;67728;53.122;12.776;2024-03-02T07:49:24;99942.66;;;6.45;94.64
31092;BME280;67728;53.122;12.776;2024-03-02T07:50:54;99944.47;;;6.45;94.77
31092;BME280;67728;53.122;12.776;2024-03-02T07:52:26;99947.13;;;6.45;94.71
31092;BME280;67728;53.122;12.776;2024-03-02T07:53:58;99939.03;;;6.46;94.82
31092;BME280;67728;53.122;12.776;2024-03-02T07:55:28;99945.19;;;6.47;94.85
31092;BME280;67728;53.122;12.776;2024-03-02T07:57:00;99938.06;;;6.47;94.71
31092;BME280;67728;53.122;12.776;2024-03-02T07:58:32;99929.22;;;6.47;94.98
31092;BME280;67728;53.122;12.776;2024-03-02T08:00:06;99933.44;;;6.49;94.58
31092;BME280;67728;53.122;12.776;2024-03-02T08:01:37;99923.66;;;6.50;94.98
31092;BME280;67728;53.122;12.776;2024-03-02T08:03:09;99923.41;;;6.53;94.61
31092;BME280;67728;53.122;12.776;2024-03-02T08:04:41;99927.53;;;6.57;95.01
31092;BME280;67728;53.122;12.776;2024-03-02T08:06:13;99927.41;;;6.58;94.90
31092;BME280;67728;53.122;12.776;2024-03-02T08:07:45;99928.97;;;6.61;94.79